sensor_id;sensor_type;location;lat;lon;timestamp;P1;durP1;ratioP1;P2;durP2;ratioP2
67816;SDS011;54614;47.576;7.524;2023-02-12T00:02:19;10.75;;;7.50;;
67816;SDS011;54614;47.576;7.524;2023-02-12T00:04:46;11.90;;;7.32;;
67816;SDS011;54614;47.576;7.524;2023-02-12T00:07:12;10.02;;;7.45;;
67816;SDS011;54614;47.576;7.524;2023-02-12T00:09:37;9.35;;;6.90;;
67816;SDS011;54614;47.576;7.524;2023-02-12T00:12:03;10.95;;;6.95;;
67816;SDS011;54614;47.576;7.524;2023-02-12T00:14:30;10.10;;;7.50;;
67816;SDS011;54614;47.576;7.524;2023-02-12T00:16:55;11.32;;;7.80;;
67816;SDS011;54614;47.576;7.524;2023-02-12T00:19:21;12.55;;;7.78;;
67816;SDS011;54614;47.576;7.524;2023-02-12T00:21:48;11.05;;;7.75;;
67816;SDS011;54614;47.576;7.524;2023-02-12T00:24:13;10.00;;;7.50;;
67816;SDS011;54614;47.576;7.524;2023-02-12T00:26:39;11.38;;;7.30;;
67816;SDS011;54614;47.576;7.524;2023-02-12T00:29:05;9.90;;;7.32;;
67816;SDS011;54614;47.576;7.524;2023-02-12T00:31:31;11.02;;;7.22;;
67816;SDS011;54614;47.576;7.524;2023-02-12T00:33:57;11.87;;;7.93;;
67816;SDS011;54614;47.576;7.524;2023-02-12T00:36:25;10.65;;;7.60;;
67816;SDS011;54614;47.576;7.524;2023-02-12T00:38:54;10.20;;;7.55;;
67816;SDS011;54614;47.576;7.524;2023-02-12T00:41:22;11.18;;;7.75;;
67816;SDS011;54614;47.576;7.524;2023-02-12T00:43:49;9.63;;;7.15;;
67816;SDS011;54614;47.576;7.524;2023-02-12T00:46:16;10.70;;;7.53;;
67816;SDS011;54614;47.576;7.524;2023-02-12T00:48:43;9.57;;;7.40;;
67816;SDS011;54614;47.576;7.524;2023-02-12T00:51:08;11.10;;;7.25;;
67816;SDS011;54614;47.576;7.524;2023-02-12T00:53:35;12.23;;;7.60;;
67816;SDS011;54614;47.576;7.524;2023-02-12T00:56:01;10.02;;;7.10;;
67816;SDS011;54614;47.576;7.524;2023-02-12T00:58:28;10.45;;;7.15;;
67816;SDS011;54614;47.576;7.524;2023-02-12T01:00:54;11.02;;;7.15;;
67816;SDS011;54614;47.576;7.524;2023-02-12T01:03:20;11.75;;;7.95;;
67816;SDS011;54614;47.576;7.524;2023-02-12T01:05:46;11.38;;;7.25;;
67816;SDS011;54614;47.576;7.524;2023-02-12T01:08:13;12.05;;;7.15;;
67816;SDS011;54614;47.576;7.524;2023-02-12T01:10:41;11.38;;;7.45;;
67816;SDS011;54614;47.576;7.524;2023-02-12T01:13:12;10.68;;;7.63;;
67816;SDS011;54614;47.576;7.524;2023-02-12T01:15:39;11.40;;;7.40;;
67816;SDS011;54614;47.576;7.524;2023-02-12T01:18:06;11.63;;;7.90;;
67816;SDS011;54614;47.576;7.524;2023-02-12T01:20:32;11.18;;;7.68;;
67816;SDS011;54614;47.576;7.524;2023-02-12T01:22:58;11.45;;;7.43;;
67816;SDS011;54614;47.576;7.524;2023-02-12T01:25:25;10.82;;;7.60;;
67816;SDS011;54614;47.576;7.524;2023-02-12T01:27:52;10.00;;;7.22;;
67816;SDS011;54614;47.576;7.524;2023-02-12T01:30:18;10.65;;;7.57;;
67816;SDS011;54614;47.576;7.524;2023-02-12T01:32:47;11.07;;;7.57;;
67816;SDS011;54614;47.576;7.524;2023-02-12T01:35:12;11.07;;;7.53;;
67816;SDS011;54614;47.576;7.524;2023-02-12T01:37:38;11.23;;;7.88;;
67816;SDS011;54614;47.576;7.524;2023-02-12T01:40:06;10.45;;;7.50;;
67816;SDS011;54614;47.576;7.524;2023-02-12T01:42:34;10.18;;;7.13;;
67816;SDS011;54614;47.576;7.524;2023-02-12T01:47:38;11.23;;;7.67;;
67816;SDS011;54614;47.576;7.524;2023-02-12T01:50:06;9.05;;;7.07;;
67816;SDS011;54614;47.576;7.524;2023-02-12T01:52:37;9.15;;;6.90;;
67816;SDS011;54614;47.576;7.524;2023-02-12T01:55:09;10.05;;;7.15;;
67816;SDS011;54614;47.576;7.524;2023-02-12T01:57:37;10.45;;;7.40;;
67816;SDS011;54614;47.576;7.524;2023-02-12T02:00:28;9.32;;;6.72;;
67816;SDS011;54614;47.576;7.524;2023-02-12T02:02:56;10.60;;;7.75;;
67816;SDS011;54614;47.576;7.524;2023-02-12T02:08:38;10.75;;;7.22;;
67816;SDS011;54614;47.576;7.524;2023-02-12T02:11:05;8.82;;;6.82;;
67816;SDS011;54614;47.576;7.524;2023-02-12T02:13:52;9.50;;;7.20;;
67816;SDS011;54614;47.576;7.524;2023-02-12T02:16:37;10.88;;;7.15;;
67816;SDS011;54614;47.576;7.524;2023-02-12T02:22:16;11.25;;;6.75;;
67816;SDS011;54614;47.576;7.524;2023-02-12T02:25:14;10.20;;;6.63;;
67816;SDS011;54614;47.576;7.524;2023-02-12T02:28:56;9.55;;;6.82;;
67816;SDS011;54614;47.576;7.524;2023-02-12T02:39:45;8.80;;;6.75;;
67816;SDS011;54614;47.576;7.524;2023-02-12T02:42:17;10.73;;;7.15;;
67816;SDS011;54614;47.576;7.524;2023-02-12T02:44:47;9.45;;;6.78;;
67816;SDS011;54614;47.576;7.524;2023-02-12T02:47:20;9.90;;;7.20;;
67816;SDS011;54614;47.576;7.524;2023-02-12T02:49:56;8.73;;;6.57;;
67816;SDS011;54614;47.576;7.524;2023-02-12T02:52:40;9.40;;;6.82;;
67816;SDS011;54614;47.576;7.524;2023-02-12T02:55:15;10.00;;;7.10;;
67816;SDS011;54614;47.576;7.524;2023-02-12T02:57:46;8.90;;;6.72;;
67816;SDS011;54614;47.576;7.524;2023-02-12T03:00:30;9.93;;;7.20;;
67816;SDS011;54614;47.576;7.524;2023-02-12T03:03:31;9.17;;;6.80;;
67816;SDS011;54614;47.576;7.524;2023-02-12T03:06:19;8.95;;;6.72;;
67816;SDS011;54614;47.576;7.524;2023-02-12T03:08:48;12.27;;;6.80;;
67816;SDS011;54614;47.576;7.524;2023-02-12T03:19:44;7.88;;;6.35;;
67816;SDS011;54614;47.576;7.524;2023-02-12T03:22:20;8.67;;;6.77;;
67816;SDS011;54614;47.576;7.524;2023-02-12T03:24:54;9.18;;;7.03;;
67816;SDS011;54614;47.576;7.524;2023-02-12T03:27:30;9.17;;;6.70;;
67816;SDS011;54614;47.576;7.524;2023-02-12T03:30:03;8.50;;;6.55;;
67816;SDS011;54614;47.576;7.524;2023-02-12T03:32:45;8.93;;;6.90;;
67816;SDS011;54614;47.576;7.524;2023-02-12T03:35:37;8.48;;;6.88;;
67816;SDS011;54614;47.576;7.524;2023-02-12T03:38:37;8.23;;;6.53;;
67816;SDS011;54614;47.576;7.524;2023-02-12T03:41:21;8.30;;;6.00;;
67816;SDS011;54614;47.576;7.524;2023-02-12T03:44:07;9.95;;;6.60;;
67816;SDS011;54614;47.576;7.524;2023-02-12T03:47:00;8.98;;;6.80;;
67816;SDS011;54614;47.576;7.524;2023-02-12T03:49:49;10.20;;;7.20;;
67816;SDS011;54614;47.576;7.524;2023-02-12T03:52:23;9.47;;;6.93;;
67816;SDS011;54614;47.576;7.524;2023-02-12T03:54:49;7.90;;;6.40;;
67816;SDS011;54614;47.576;7.524;2023-02-12T03:57:17;9.20;;;6.50;;
67816;SDS011;54614;47.576;7.524;2023-02-12T03:59:54;8.27;;;6.57;;
67816;SDS011;54614;47.576;7.524;2023-02-12T04:02:23;9.45;;;6.63;;
67816;SDS011;54614;47.576;7.524;2023-02-12T04:04:49;8.48;;;6.43;;
67816;SDS011;54614;47.576;7.524;2023-02-12T04:07:16;8.43;;;6.57;;
67816;SDS011;54614;47.576;7.524;2023-02-12T04:09:42;8.73;;;6.90;;
67816;SDS011;54614;47.576;7.524;2023-02-12T04:15:26;10.38;;;7.32;;
67816;SDS011;54614;47.576;7.524;2023-02-12T04:18:04;8.75;;;6.78;;
67816;SDS011;54614;47.576;7.524;2023-02-12T04:31:58;9.38;;;6.65;;
67816;SDS011;54614;47.576;7.524;2023-02-12T04:34:49;9.52;;;6.70;;
67816;SDS011;54614;47.576;7.524;2023-02-12T04:37:30;8.93;;;6.28;;
67816;SDS011;54614;47.576;7.524;2023-02-12T04:40:06;7.17;;;6.07;;
67816;SDS011;54614;47.576;7.524;2023-02-12T04:42:42;9.77;;;6.38;;
67816;SDS011;54614;47.576;7.524;2023-02-12T04:45:11;8.50;;;6.20;;
67816;SDS011;54614;47.576;7.524;2023-02-12T04:47:45;7.83;;;6.40;;
67816;SDS011;54614;47.576;7.524;2023-02-12T04:50:11;8.17;;;6.30;;
67816;SDS011;54614;47.576;7.524;2023-02-12T04:52:37;8.73;;;6.50;;
67816;SDS011;54614;47.576;7.524;2023-02-12T04:55:03;7.47;;;6.00;;
67816;SDS011;54614;47.576;7.524;2023-02-12T04:57:29;7.80;;;6.03;;
67816;SDS011;54614;47.576;7.524;2023-02-12T04:59:55;9.07;;;6.10;;
67816;SDS011;54614;47.576;7.524;2023-02-12T05:02:21;9.13;;;6.33;;
67816;SDS011;54614;47.576;7.524;2023-02-12T05:04:50;8.63;;;5.85;;
67816;SDS011;54614;47.576;7.524;2023-02-12T05:07:15;7.80;;;5.93;;
67816;SDS011;54614;47.576;7.524;2023-02-12T05:09:41;8.37;;;5.90;;
67816;SDS011;54614;47.576;7.524;2023-02-12T05:12:07;7.37;;;5.87;;
67816;SDS011;54614;47.576;7.524;2023-02-12T05:14:33;8.20;;;6.27;;
67816;SDS011;54614;47.576;7.524;2023-02-12T05:16:59;8.07;;;6.10;;
67816;SDS011;54614;47.576;7.524;2023-02-12T05:19:25;7.47;;;5.77;;
67816;SDS011;54614;47.576;7.524;2023-02-12T05:21:51;7.57;;;5.97;;
67816;SDS011;54614;47.576;7.524;2023-02-12T05:24:17;8.47;;;5.30;;
67816;SDS011;54614;47.576;7.524;2023-02-12T05:26:42;9.50;;;5.70;;
67816;SDS011;54614;47.576;7.524;2023-02-12T05:29:08;7.10;;;5.30;;
67816;SDS011;54614;47.576;7.524;2023-02-12T05:31:34;6.00;;;5.03;;
67816;SDS011;54614;47.576;7.524;2023-02-12T05:34:00;7.97;;;5.90;;
67816;SDS011;54614;47.576;7.524;2023-02-12T05:36:26;6.77;;;5.30;;
67816;SDS011;54614;47.576;7.524;2023-02-12T05:38:55;7.17;;;5.53;;
67816;SDS011;54614;47.576;7.524;2023-02-12T05:41:23;7.27;;;5.13;;
67816;SDS011;54614;47.576;7.524;2023-02-12T05:43:49;6.60;;;5.10;;
67816;SDS011;54614;47.576;7.524;2023-02-12T05:46:17;7.13;;;4.90;;
67816;SDS011;54614;47.576;7.524;2023-02-12T05:48:45;6.27;;;5.20;;
67816;SDS011;54614;47.576;7.524;2023-02-12T05:51:13;6.33;;;5.03;;
67816;SDS011;54614;47.576;7.524;2023-02-12T05:53:46;6.07;;;4.80;;
67816;SDS011;54614;47.576;7.524;2023-02-12T05:58:57;6.47;;;5.20;;
67816;SDS011;54614;47.576;7.524;2023-02-12T06:01:39;6.20;;;4.83;;
67816;SDS011;54614;47.576;7.524;2023-02-12T06:04:09;7.03;;;5.10;;
67816;SDS011;54614;47.576;7.524;2023-02-12T06:06:43;6.00;;;5.10;;
67816;SDS011;54614;47.576;7.524;2023-02-12T06:09:10;6.50;;;5.10;;
67816;SDS011;54614;47.576;7.524;2023-02-12T06:11:38;6.70;;;4.82;;
67816;SDS011;54614;47.576;7.524;2023-02-12T06:14:05;5.70;;;4.87;;
67816;SDS011;54614;47.576;7.524;2023-02-12T06:16:40;7.73;;;4.90;;
67816;SDS011;54614;47.576;7.524;2023-02-12T06:19:11;7.37;;;5.07;;
67816;SDS011;54614;47.576;7.524;2023-02-12T06:21:37;6.13;;;4.87;;
67816;SDS011;54614;47.576;7.524;2023-02-12T06:24:03;5.93;;;4.80;;
67816;SDS011;54614;47.576;7.524;2023-02-12T06:26:29;6.47;;;5.03;;
67816;SDS011;54614;47.576;7.524;2023-02-12T06:28:55;6.13;;;4.70;;
67816;SDS011;54614;47.576;7.524;2023-02-12T06:33:56;6.63;;;4.87;;
67816;SDS011;54614;47.576;7.524;2023-02-12T06:36:25;5.63;;;4.63;;
67816;SDS011;54614;47.576;7.524;2023-02-12T06:38:51;8.03;;;4.50;;
67816;SDS011;54614;47.576;7.524;2023-02-12T06:41:17;6.17;;;4.60;;
67816;SDS011;54614;47.576;7.524;2023-02-12T06:43:44;5.77;;;4.53;;
67816;SDS011;54614;47.576;7.524;2023-02-12T06:46:10;6.10;;;4.83;;
67816;SDS011;54614;47.576;7.524;2023-02-12T06:48:36;7.37;;;5.10;;
67816;SDS011;54614;47.576;7.524;2023-02-12T06:51:03;9.40;;;4.57;;
67816;SDS011;54614;47.576;7.524;2023-02-12T06:53:40;6.93;;;4.33;;
67816;SDS011;54614;47.576;7.524;2023-02-12T06:56:07;7.13;;;4.60;;
67816;SDS011;54614;47.576;7.524;2023-02-12T06:58:35;7.80;;;5.00;;
67816;SDS011;54614;47.576;7.524;2023-02-12T07:01:09;9.77;;;5.00;;
67816;SDS011;54614;47.576;7.524;2023-02-12T07:03:49;12.97;;;5.50;;
67816;SDS011;54614;47.576;7.524;2023-02-12T07:06:19;9.87;;;5.90;;
67816;SDS011;54614;47.576;7.524;2023-02-12T07:08:45;7.60;;;5.70;;
67816;SDS011;54614;47.576;7.524;2023-02-12T07:11:12;12.03;;;5.57;;
67816;SDS011;54614;47.576;7.524;2023-02-12T07:13:39;9.13;;;5.13;;
67816;SDS011;54614;47.576;7.524;2023-02-12T07:16:12;12.30;;;5.00;;
67816;SDS011;54614;47.576;7.524;2023-02-12T07:18:40;6.63;;;4.97;;
67816;SDS011;54614;47.576;7.524;2023-02-12T07:21:09;8.67;;;5.23;;
67816;SDS011;54614;47.576;7.524;2023-02-12T07:23:37;8.53;;;4.97;;
67816;SDS011;54614;47.576;7.524;2023-02-12T07:26:04;6.50;;;5.37;;
67816;SDS011;54614;47.576;7.524;2023-02-12T07:28:33;8.50;;;5.27;;
67816;SDS011;54614;47.576;7.524;2023-02-12T07:31:05;6.57;;;4.90;;
67816;SDS011;54614;47.576;7.524;2023-02-12T07:33:33;6.67;;;5.13;;
67816;SDS011;54614;47.576;7.524;2023-02-12T07:36:02;10.27;;;5.40;;
67816;SDS011;54614;47.576;7.524;2023-02-12T07:38:30;7.33;;;4.90;;
67816;SDS011;54614;47.576;7.524;2023-02-12T07:41:04;12.73;;;5.23;;
67816;SDS011;54614;47.576;7.524;2023-02-12T07:43:51;12.20;;;5.73;;
67816;SDS011;54614;47.576;7.524;2023-02-12T07:46:25;12.03;;;6.27;;
67816;SDS011;54614;47.576;7.524;2023-02-12T07:48:58;11.13;;;5.97;;
67816;SDS011;54614;47.576;7.524;2023-02-12T07:51:30;11.93;;;5.90;;
67816;SDS011;54614;47.576;7.524;2023-02-12T07:53:58;9.47;;;5.77;;
67816;SDS011;54614;47.576;7.524;2023-02-12T07:56:26;10.37;;;5.40;;
67816;SDS011;54614;47.576;7.524;2023-02-12T07:58:59;8.63;;;5.43;;
67816;SDS011;54614;47.576;7.524;2023-02-12T08:01:33;22.80;;;5.70;;
67816;SDS011;54614;47.576;7.524;2023-02-12T08:04:06;10.40;;;5.17;;
67816;SDS011;54614;47.576;7.524;2023-02-12T08:06:36;9.50;;;5.63;;
67816;SDS011;54614;47.576;7.524;2023-02-12T08:09:06;12.97;;;5.60;;
67816;SDS011;54614;47.576;7.524;2023-02-12T08:11:35;11.37;;;5.50;;
67816;SDS011;54614;47.576;7.524;2023-02-12T08:14:03;14.87;;;5.90;;
67816;SDS011;54614;47.576;7.524;2023-02-12T08:16:29;10.40;;;5.40;;
67816;SDS011;54614;47.576;7.524;2023-02-12T08:19:00;12.97;;;5.93;;
67816;SDS011;54614;47.576;7.524;2023-02-12T08:21:27;13.77;;;5.87;;
67816;SDS011;54614;47.576;7.524;2023-02-12T08:23:54;12.37;;;6.00;;
67816;SDS011;54614;47.576;7.524;2023-02-12T08:28:59;10.10;;;6.30;;
67816;SDS011;54614;47.576;7.524;2023-02-12T08:31:30;10.87;;;7.10;;
67816;SDS011;54614;47.576;7.524;2023-02-12T08:33:59;13.83;;;7.40;;
67816;SDS011;54614;47.576;7.524;2023-02-12T08:36:27;18.20;;;7.80;;
67816;SDS011;54614;47.576;7.524;2023-02-12T08:38:56;24.00;;;7.50;;
67816;SDS011;54614;47.576;7.524;2023-02-12T08:41:24;16.00;;;7.27;;
67816;SDS011;54614;47.576;7.524;2023-02-12T08:43:53;17.23;;;7.07;;
67816;SDS011;54614;47.576;7.524;2023-02-12T08:46:25;15.93;;;7.43;;
67816;SDS011;54614;47.576;7.524;2023-02-12T08:48:55;16.70;;;7.17;;
67816;SDS011;54614;47.576;7.524;2023-02-12T08:51:25;17.17;;;6.97;;
67816;SDS011;54614;47.576;7.524;2023-02-12T08:53:55;15.30;;;6.97;;
67816;SDS011;54614;47.576;7.524;2023-02-12T08:56:26;19.75;;;7.35;;
67816;SDS011;54614;47.576;7.524;2023-02-12T08:58:56;15.27;;;7.30;;
67816;SDS011;54614;47.576;7.524;2023-02-12T09:01:25;15.70;;;8.20;;
67816;SDS011;54614;47.576;7.524;2023-02-12T09:03:53;21.23;;;7.60;;
67816;SDS011;54614;47.576;7.524;2023-02-12T09:06:20;28.07;;;8.40;;
67816;SDS011;54614;47.576;7.524;2023-02-12T09:08:49;40.10;;;8.33;;
67816;SDS011;54614;47.576;7.524;2023-02-12T09:11:17;22.00;;;8.13;;
67816;SDS011;54614;47.576;7.524;2023-02-12T09:14:02;22.13;;;7.90;;
67816;SDS011;54614;47.576;7.524;2023-02-12T09:16:33;20.15;;;7.05;;
67816;SDS011;54614;47.576;7.524;2023-02-12T09:19:01;27.60;;;8.57;;
67816;SDS011;54614;47.576;7.524;2023-02-12T09:21:28;20.30;;;7.60;;
67816;SDS011;54614;47.576;7.524;2023-02-12T09:23:54;24.08;;;7.00;;
67816;SDS011;54614;47.576;7.524;2023-02-12T09:26:21;22.25;;;6.85;;
67816;SDS011;54614;47.576;7.524;2023-02-12T09:28:50;17.88;;;7.35;;
67816;SDS011;54614;47.576;7.524;2023-02-12T09:31:18;17.77;;;7.28;;
67816;SDS011;54614;47.576;7.524;2023-02-12T09:33:50;21.58;;;6.85;;
67816;SDS011;54614;47.576;7.524;2023-02-12T09:36:19;19.60;;;7.25;;
67816;SDS011;54614;47.576;7.524;2023-02-12T09:38:45;17.40;;;6.78;;
67816;SDS011;54614;47.576;7.524;2023-02-12T09:47:11;16.65;;;6.97;;
67816;SDS011;54614;47.576;7.524;2023-02-12T09:50:20;21.13;;;6.60;;
67816;SDS011;54614;47.576;7.524;2023-02-12T09:53:01;14.70;;;6.38;;
67816;SDS011;54614;47.576;7.524;2023-02-12T09:55:30;13.00;;;7.03;;
67816;SDS011;54614;47.576;7.524;2023-02-12T09:58:00;14.88;;;6.10;;
67816;SDS011;54614;47.576;7.524;2023-02-12T10:00:35;11.68;;;6.18;;
67816;SDS011;54614;47.576;7.524;2023-02-12T10:03:01;15.05;;;6.78;;
67816;SDS011;54614;47.576;7.524;2023-02-12T10:05:40;11.52;;;5.93;;
67816;SDS011;54614;47.576;7.524;2023-02-12T10:08:28;14.13;;;6.05;;
67816;SDS011;54614;47.576;7.524;2023-02-12T10:15:01;19.77;;;5.95;;
67816;SDS011;54614;47.576;7.524;2023-02-12T10:27:30;15.48;;;5.40;;
67816;SDS011;54614;47.576;7.524;2023-02-12T10:30:12;10.75;;;5.30;;
67816;SDS011;54614;47.576;7.524;2023-02-12T10:33:36;16.38;;;5.28;;
67816;SDS011;54614;47.576;7.524;2023-02-12T10:44:27;16.98;;;5.30;;
67816;SDS011;54614;47.576;7.524;2023-02-12T10:46:54;19.35;;;5.15;;
67816;SDS011;54614;47.576;7.524;2023-02-12T10:49:20;16.02;;;5.35;;
67816;SDS011;54614;47.576;7.524;2023-02-12T10:55:01;11.35;;;5.32;;
67816;SDS011;54614;47.576;7.524;2023-02-12T10:57:30;10.13;;;5.13;;
67816;SDS011;54614;47.576;7.524;2023-02-12T11:03:05;12.45;;;5.13;;
67816;SDS011;54614;47.576;7.524;2023-02-12T11:05:52;9.32;;;4.80;;
67816;SDS011;54614;47.576;7.524;2023-02-12T11:08:32;10.75;;;4.70;;
67816;SDS011;54614;47.576;7.524;2023-02-12T11:13:38;8.40;;;4.72;;
67816;SDS011;54614;47.576;7.524;2023-02-12T11:16:09;10.18;;;4.55;;
67816;SDS011;54614;47.576;7.524;2023-02-12T11:18:41;15.55;;;4.88;;
67816;SDS011;54614;47.576;7.524;2023-02-12T11:21:10;11.57;;;4.75;;
67816;SDS011;54614;47.576;7.524;2023-02-12T11:23:38;17.20;;;4.97;;
67816;SDS011;54614;47.576;7.524;2023-02-12T11:28:44;17.95;;;6.65;;
67816;SDS011;54614;47.576;7.524;2023-02-12T11:34:09;18.13;;;6.47;;
67816;SDS011;54614;47.576;7.524;2023-02-12T11:36:48;17.25;;;7.10;;
67816;SDS011;54614;47.576;7.524;2023-02-12T11:39:21;18.92;;;7.40;;
67816;SDS011;54614;47.576;7.524;2023-02-12T11:41:51;17.50;;;7.05;;
67816;SDS011;54614;47.576;7.524;2023-02-12T11:44:21;15.65;;;6.43;;
67816;SDS011;54614;47.576;7.524;2023-02-12T11:46:57;11.48;;;6.32;;
67816;SDS011;54614;47.576;7.524;2023-02-12T11:49:31;19.95;;;6.60;;
67816;SDS011;54614;47.576;7.524;2023-02-12T11:52:04;15.90;;;6.10;;
67816;SDS011;54614;47.576;7.524;2023-02-12T11:54:35;13.50;;;6.13;;
67816;SDS011;54614;47.576;7.524;2023-02-12T12:00:18;12.88;;;5.80;;
67816;SDS011;54614;47.576;7.524;2023-02-12T12:06:11;13.43;;;5.13;;
67816;SDS011;54614;47.576;7.524;2023-02-12T12:09:06;13.48;;;5.28;;
67816;SDS011;54614;47.576;7.524;2023-02-12T12:11:59;19.95;;;5.60;;
67816;SDS011;54614;47.576;7.524;2023-02-12T12:14:32;12.85;;;4.78;;
67816;SDS011;54614;47.576;7.524;2023-02-12T12:18:13;12.30;;;4.93;;
67816;SDS011;54614;47.576;7.524;2023-02-12T12:21:23;18.70;;;5.13;;
67816;SDS011;54614;47.576;7.524;2023-02-12T12:24:13;12.02;;;4.68;;
67816;SDS011;54614;47.576;7.524;2023-02-12T12:26:49;11.77;;;4.55;;
67816;SDS011;54614;47.576;7.524;2023-02-12T12:32:24;12.48;;;4.55;;
67816;SDS011;54614;47.576;7.524;2023-02-12T12:34:54;12.23;;;4.40;;
67816;SDS011;54614;47.576;7.524;2023-02-12T12:37:23;12.32;;;4.68;;
67816;SDS011;54614;47.576;7.524;2023-02-12T12:43:44;12.07;;;4.57;;
67816;SDS011;54614;47.576;7.524;2023-02-12T13:10:17;6.43;;;3.85;;
67816;SDS011;54614;47.576;7.524;2023-02-12T13:18:50;5.28;;;3.53;;
67816;SDS011;54614;47.576;7.524;2023-02-12T13:24:16;5.07;;;3.15;;
67816;SDS011;54614;47.576;7.524;2023-02-12T13:29:57;5.47;;;3.15;;
67816;SDS011;54614;47.576;7.524;2023-02-12T13:32:40;5.30;;;3.38;;
67816;SDS011;54614;47.576;7.524;2023-02-12T13:35:15;5.13;;;2.90;;
67816;SDS011;54614;47.576;7.524;2023-02-12T13:37:51;5.20;;;3.00;;
67816;SDS011;54614;47.576;7.524;2023-02-12T13:45:45;4.07;;;2.80;;
67816;SDS011;54614;47.576;7.524;2023-02-12T13:51:20;5.05;;;2.80;;
67816;SDS011;54614;47.576;7.524;2023-02-12T13:57:08;3.67;;;2.83;;
67816;SDS011;54614;47.576;7.524;2023-02-12T13:59:41;6.68;;;2.95;;
67816;SDS011;54614;47.576;7.524;2023-02-12T14:05:03;4.25;;;2.83;;
67816;SDS011;54614;47.576;7.524;2023-02-12T14:07:58;3.90;;;3.03;;
67816;SDS011;54614;47.576;7.524;2023-02-12T14:10:34;5.28;;;2.97;;
67816;SDS011;54614;47.576;7.524;2023-02-12T14:13:13;3.70;;;2.78;;
67816;SDS011;54614;47.576;7.524;2023-02-12T14:15:53;4.05;;;2.80;;
67816;SDS011;54614;47.576;7.524;2023-02-12T14:21:32;6.35;;;2.58;;
67816;SDS011;54614;47.576;7.524;2023-02-12T14:24:45;4.97;;;2.80;;
67816;SDS011;54614;47.576;7.524;2023-02-12T14:27:04;5.88;;;2.70;;
67816;SDS011;54614;47.576;7.524;2023-02-12T14:30:00;5.60;;;2.65;;
67816;SDS011;54614;47.576;7.524;2023-02-12T14:37:51;2.90;;;2.58;;
67816;SDS011;54614;47.576;7.524;2023-02-12T14:45:52;2.60;;;2.40;;
67816;SDS011;54614;47.576;7.524;2023-02-12T14:51:18;2.90;;;2.60;;
67816;SDS011;54614;47.576;7.524;2023-02-12T14:54:04;3.10;;;2.45;;
67816;SDS011;54614;47.576;7.524;2023-02-12T14:57:05;2.78;;;2.47;;
67816;SDS011;54614;47.576;7.524;2023-02-12T14:59:45;4.93;;;2.30;;
67816;SDS011;54614;47.576;7.524;2023-02-12T15:02:17;3.70;;;2.40;;
67816;SDS011;54614;47.576;7.524;2023-02-12T15:05:17;3.45;;;2.67;;
67816;SDS011;54614;47.576;7.524;2023-02-12T15:07:51;2.72;;;2.45;;
67816;SDS011;54614;47.576;7.524;2023-02-12T15:10:27;2.97;;;2.55;;
67816;SDS011;54614;47.576;7.524;2023-02-12T15:13:46;3.90;;;2.30;;
67816;SDS011;54614;47.576;7.524;2023-02-12T15:16:04;3.20;;;2.50;;
67816;SDS011;54614;47.576;7.524;2023-02-12T15:23:47;3.75;;;2.20;;
67816;SDS011;54614;47.576;7.524;2023-02-12T15:26:27;2.63;;;2.42;;
67816;SDS011;54614;47.576;7.524;2023-02-12T15:29:02;2.47;;;2.28;;
67816;SDS011;54614;47.576;7.524;2023-02-12T15:31:29;2.72;;;2.53;;
67816;SDS011;54614;47.576;7.524;2023-02-12T15:33:57;3.08;;;2.20;;
67816;SDS011;54614;47.576;7.524;2023-02-12T15:36:27;3.20;;;2.38;;
67816;SDS011;54614;47.576;7.524;2023-02-12T15:38:58;2.70;;;2.40;;
67816;SDS011;54614;47.576;7.524;2023-02-12T15:43:56;3.95;;;2.30;;
67816;SDS011;54614;47.576;7.524;2023-02-12T15:46:26;7.10;;;2.50;;
67816;SDS011;54614;47.576;7.524;2023-02-12T15:48:52;2.03;;;1.92;;
67816;SDS011;54614;47.576;7.524;2023-02-12T15:53:55;4.47;;;2.30;;
67816;SDS011;54614;47.576;7.524;2023-02-12T15:56:24;2.42;;;2.10;;
67816;SDS011;54614;47.576;7.524;2023-02-12T15:58:53;3.00;;;2.20;;
67816;SDS011;54614;47.576;7.524;2023-02-12T16:01:25;4.13;;;2.20;;
67816;SDS011;54614;47.576;7.524;2023-02-12T16:03:58;3.35;;;2.10;;
67816;SDS011;54614;47.576;7.524;2023-02-12T16:06:31;2.60;;;2.20;;
67816;SDS011;54614;47.576;7.524;2023-02-12T16:09:05;4.25;;;2.50;;
67816;SDS011;54614;47.576;7.524;2023-02-12T16:11:40;2.42;;;2.22;;
67816;SDS011;54614;47.576;7.524;2023-02-12T16:14:17;3.55;;;2.30;;
67816;SDS011;54614;47.576;7.524;2023-02-12T16:16:51;4.00;;;2.53;;
67816;SDS011;54614;47.576;7.524;2023-02-12T16:19:21;5.50;;;2.38;;
67816;SDS011;54614;47.576;7.524;2023-02-12T16:21:54;4.85;;;2.25;;
67816;SDS011;54614;47.576;7.524;2023-02-12T16:24:46;2.78;;;2.15;;
67816;SDS011;54614;47.576;7.524;2023-02-12T16:27:29;6.22;;;2.40;;
67816;SDS011;54614;47.576;7.524;2023-02-12T16:32:37;5.32;;;2.72;;
67816;SDS011;54614;47.576;7.524;2023-02-12T16:40:08;30.33;;;3.05;;
67816;SDS011;54614;47.576;7.524;2023-02-12T16:42:38;25.30;;;3.00;;
67816;SDS011;54614;47.576;7.524;2023-02-12T16:47:56;21.33;;;3.20;;
67816;SDS011;54614;47.576;7.524;2023-02-12T16:50:33;16.40;;;2.90;;
67816;SDS011;54614;47.576;7.524;2023-02-12T16:53:04;9.10;;;2.60;;
67816;SDS011;54614;47.576;7.524;2023-02-12T16:55:55;20.75;;;2.65;;
67816;SDS011;54614;47.576;7.524;2023-02-12T16:58:23;23.40;;;2.70;;
67816;SDS011;54614;47.576;7.524;2023-02-12T17:00:50;9.93;;;2.75;;
67816;SDS011;54614;47.576;7.524;2023-02-12T17:03:18;10.82;;;3.05;;
67816;SDS011;54614;47.576;7.524;2023-02-12T17:05:45;11.25;;;3.40;;
67816;SDS011;54614;47.576;7.524;2023-02-12T17:08:12;8.45;;;2.95;;
67816;SDS011;54614;47.576;7.524;2023-02-12T17:10:41;6.70;;;3.05;;
67816;SDS011;54614;47.576;7.524;2023-02-12T17:13:12;22.60;;;3.45;;
67816;SDS011;54614;47.576;7.524;2023-02-12T17:15:41;44.97;;;4.63;;
67816;SDS011;54614;47.576;7.524;2023-02-12T17:18:23;29.50;;;4.28;;
67816;SDS011;54614;47.576;7.524;2023-02-12T17:20:53;33.17;;;4.30;;
67816;SDS011;54614;47.576;7.524;2023-02-12T17:23:27;22.73;;;3.70;;
67816;SDS011;54614;47.576;7.524;2023-02-12T17:25:54;20.48;;;3.38;;
67816;SDS011;54614;47.576;7.524;2023-02-12T17:28:20;16.10;;;3.08;;
67816;SDS011;54614;47.576;7.524;2023-02-12T17:30:47;8.10;;;3.13;;
67816;SDS011;54614;47.576;7.524;2023-02-12T17:33:13;8.63;;;3.20;;
67816;SDS011;54614;47.576;7.524;2023-02-12T17:35:40;7.60;;;3.33;;
67816;SDS011;54614;47.576;7.524;2023-02-12T17:38:06;15.13;;;3.72;;
67816;SDS011;54614;47.576;7.524;2023-02-12T17:40:35;9.80;;;2.97;;
67816;SDS011;54614;47.576;7.524;2023-02-12T17:43:03;8.70;;;3.05;;
67816;SDS011;54614;47.576;7.524;2023-02-12T17:45:30;9.43;;;3.70;;
67816;SDS011;54614;47.576;7.524;2023-02-12T17:47:57;10.30;;;3.50;;
67816;SDS011;54614;47.576;7.524;2023-02-12T17:50:23;16.02;;;3.45;;
67816;SDS011;54614;47.576;7.524;2023-02-12T17:52:50;8.45;;;3.20;;
67816;SDS011;54614;47.576;7.524;2023-02-12T17:55:16;6.95;;;3.38;;
67816;SDS011;54614;47.576;7.524;2023-02-12T17:57:42;9.38;;;2.95;;
67816;SDS011;54614;47.576;7.524;2023-02-12T18:00:09;9.52;;;3.47;;
67816;SDS011;54614;47.576;7.524;2023-02-12T18:02:37;11.48;;;3.75;;
67816;SDS011;54614;47.576;7.524;2023-02-12T18:05:03;13.32;;;3.83;;
67816;SDS011;54614;47.576;7.524;2023-02-12T18:07:33;31.25;;;4.20;;
67816;SDS011;54614;47.576;7.524;2023-02-12T18:10:00;19.65;;;3.50;;
67816;SDS011;54614;47.576;7.524;2023-02-12T18:12:26;9.13;;;3.70;;
67816;SDS011;54614;47.576;7.524;2023-02-12T18:14:57;12.88;;;3.90;;
67816;SDS011;54614;47.576;7.524;2023-02-12T18:17:25;12.63;;;3.88;;
67816;SDS011;54614;47.576;7.524;2023-02-12T18:19:51;17.52;;;4.13;;
67816;SDS011;54614;47.576;7.524;2023-02-12T18:22:19;10.85;;;4.00;;
67816;SDS011;54614;47.576;7.524;2023-02-12T18:24:45;7.85;;;3.80;;